Time;durP1;ratioP1;P1;durP2;ratioP2;P2;SDS_P1;SDS_P2;PMS_P1;PMS_P2;Temp;Humidity;BMP_temperature;BMP_pressure;BME280_temperature;BME280_humidity;BME280_pressure;Samples;Min_cycle;Max_cycle;Signal;HPM_P1;HPM_P2
2021/05/10 06:55:14;;;;;;;;;;;;;;;14.32;64.31;98666.44;6200115;23;19978;-85
2021/05/10 06:57:39;;;;;;;;;;;;;;;14.32;64.61;98664.63;6209865;23;20386;-86
2021/05/10 07:00:05;;;;;;;;;;;;;;;14.32;64.45;98653.97;6210725;23;20165;-86
2021/05/10 07:02:30;;;;;;;;;;;;;;;14.32;64.52;98664.63;6184223;23;19980;-86
2021/05/10 07:07:24;;;;;;;;;;;;;;;14.38;65.93;98694.47;6215565;23;20308;-86
2021/05/10 07:09:52;;;;;;;;;;;;;;;14.37;65.81;98692.75;6211569;23;19995;-85
2021/05/10 07:12:17;;;;;;;;;;;;;;;14.40;65.90;98704.00;6214145;23;20312;-85
2021/05/10 07:14:43;;;;;;;;;;;;;;;14.40;66.18;98714.66;6211337;23;19916;-82
2021/05/10 07:17:08;;;;;;;;;;;;;;;14.89;68.23;98720.78;6212758;23;20284;-83
2021/05/10 07:19:34;;;;;;;;;;;;;;;14.73;71.81;98725.56;6210430;23;19926;-84
2021/05/10 07:21:59;;;;;;;;;;;;;;;15.01;72.75;98730.50;6210800;23;19948;-87
2021/05/10 07:24:25;;;;;;;;;;;;;;;15.08;70.89;98730.84;6211352;23;19974;-81
2021/05/10 07:26:51;;;;;;;;;;;;;;;14.86;71.04;98732.50;6209586;23;19942;-82
2021/05/10 07:29:16;;;;;;;;;;;;;;;15.54;73.09;98729.00;6208701;23;20205;-85
2021/05/10 07:31:41;;;;;;;;;;;;;;;15.48;74.04;98718.84;6184072;23;19955;-84
2021/05/10 07:34:07;;;;;;;;;;;;;;;15.29;72.44;98728.31;6210661;23;19935;-85
2021/05/10 07:36:32;;;;;;;;;;;;;;;15.03;73.09;98741.88;6210032;23;20289;-85
2021/05/10 07:38:57;;;;;;;;;;;;;;;14.85;71.92;98737.97;6209305;23;19920;-85
2021/05/10 07:41:23;;;;;;;;;;;;;;;14.76;70.81;98742.19;6183611;23;19919;-85
2021/05/10 07:43:48;;;;;;;;;;;;;;;14.72;69.59;98738.06;6211265;23;19919;-85
2021/05/10 07:46:14;;;;;;;;;;;;;;;14.69;69.46;98735.63;6211550;23;20129;-85
2021/05/10 07:48:39;;;;;;;;;;;;;;;14.66;69.34;98731.41;6209679;23;19916;-85
2021/05/10 07:51:04;;;;;;;;;;;;;;;14.65;69.18;98727.03;6208343;23;19916;-85
2021/05/10 07:53:30;;;;;;;;;;;;;;;14.64;68.97;98727.97;6183559;23;19915;-85
2021/05/10 07:55:55;;;;;;;;;;;;;;;14.63;69.16;98752.09;6208922;23;20045;-85
2021/05/10 07:58:21;;;;;;;;;;;;;;;14.62;68.84;98755.75;6208463;23;19916;-85
2021/05/10 08:00:47;;;;;;;;;;;;;;;14.64;68.87;98751.97;6181466;23;19974;-85
2021/05/10 08:03:15;;;;;;;;;;;;;;;14.70;69.16;98775.50;6182231;23;20240;-85
2021/05/10 08:05:41;;;;;;;;;;;;;;;14.71;69.03;98777.22;6182742;23;19996;-85
2021/05/10 08:08:07;;;;;;;;;;;;;;;14.70;68.87;98786.16;6183098;23;19916;-85
2021/05/10 08:10:32;;;;;;;;;;;;;;;14.69;69.03;98794.28;6184234;23;19923;-85
2021/05/10 08:12:58;;;;;;;;;;;;;;;14.70;69.12;98815.50;6211504;23;19920;-84
2021/05/10 08:15:23;;;;;;;;;;;;;;;14.70;68.80;98818.16;6211956;23;19970;-85
2021/05/10 08:17:49;;;;;;;;;;;;;;;14.71;69.08;98811.88;6183942;23;19924;-85
2021/05/10 08:20:14;;;;;;;;;;;;;;;14.71;69.54;98814.53;6210367;23;19979;-85
2021/05/10 08:22:45;;;;;;;;;;;;;;;14.74;69.15;98815.25;6210813;23;20197;-85
2021/05/10 08:25:12;;;;;;;;;;;;;;;14.72;69.45;98815.38;6187645;23;19947;-84
2021/05/10 08:27:37;;;;;;;;;;;;;;;14.73;69.30;98821.56;6214728;23;19939;-86
2021/05/10 08:30:05;;;;;;;;;;;;;;;14.69;69.51;98824.47;6214136;23;19916;-86
2021/05/10 08:32:30;;;;;;;;;;;;;;;14.71;69.66;98827.88;6184820;23;20289;-86
2021/05/10 08:34:56;;;;;;;;;;;;;;;14.73;69.75;98825.09;6211345;23;19916;-86
2021/05/10 08:37:21;;;;;;;;;;;;;;;14.69;69.65;98820.94;6184898;23;19946;-86
2021/05/10 08:39:47;;;;;;;;;;;;;;;14.69;69.84;98821.81;6184275;23;19922;-86
2021/05/10 08:42:12;;;;;;;;;;;;;;;14.69;70.03;98829.81;6209627;23;19946;-85
2021/05/10 08:44:37;;;;;;;;;;;;;;;14.74;70.24;98823.25;6183909;23;20108;-84
2021/05/10 08:47:03;;;;;;;;;;;;;;;14.73;70.19;98827.75;6183171;23;19919;-84
2021/05/10 08:49:28;;;;;;;;;;;;;;;14.74;70.39;98820.59;6183224;23;20049;-85
2021/05/10 08:51:54;;;;;;;;;;;;;;;14.71;70.33;98835.88;6210180;23;19938;-85
2021/05/10 08:54:20;;;;;;;;;;;;;;;14.70;70.51;98836.81;6209667;23;19991;-85
2021/05/10 08:56:46;;;;;;;;;;;;;;;14.74;70.57;98828.59;6210752;23;20199;-84
2021/05/10 08:59:11;;;;;;;;;;;;;;;14.70;70.31;98812.00;6209622;23;20426;-85
2021/05/10 09:01:47;;;;;;;;;;;;;;;14.70;70.39;98807.50;6183877;23;19923;-85
2021/05/10 09:04:12;;;;;;;;;;;;;;;14.67;70.46;98783.72;6210528;23;19920;-85
2021/05/10 09:06:38;;;;;;;;;;;;;;;14.68;70.17;98782.78;6211082;23;20041;-85
2021/05/10 09:09:08;;;;;;;;;;;;;;;14.69;70.64;98821.81;6183585;23;19916;-85
2021/05/10 09:11:33;;;;;;;;;;;;;;;14.73;70.71;98850.88;6209581;23;19924;-85
2021/05/10 09:13:59;;;;;;;;;;;;;;;14.76;70.61;98853.31;6210815;23;20091;-85
2021/05/10 09:16:25;;;;;;;;;;;;;;;14.71;70.65;98859.88;6214091;23;19930;-85
2021/05/10 09:18:51;;;;;;;;;;;;;;;14.72;70.64;98866.03;6189778;23;19916;-86
2021/05/10 09:21:24;;;;;;;;;;;;;;;14.75;71.08;98873.81;6213594;23;19995;-85
2021/05/10 09:23:51;;;;;;;;;;;;;;;14.78;71.49;98883.41;6183743;23;19920;-85
2021/05/10 09:26:29;;;;;;;;;;;;;;;14.79;71.28;98882.41;6183373;23;19927;-85
2021/05/10 09:28:54;;;;;;;;;;;;;;;14.77;71.37;98876.34;6211563;23;19915;-85
2021/05/10 09:31:20;;;;;;;;;;;;;;;14.77;71.54;98871.03;6207319;23;20007;-85
2021/05/10 09:33:46;;;;;;;;;;;;;;;14.75;71.14;98872.97;6209485;23;20230;-85
2021/05/10 09:36:30;;;;;;;;;;;;;;;14.74;71.16;98866.75;6210979;23;19986;-85
2021/05/10 09:38:56;;;;;;;;;;;;;;;14.75;71.06;98864.97;6212938;23;19924;-85
2021/05/10 09:41:21;;;;;;;;;;;;;;;14.75;71.10;98864.97;6184991;23;20063;-85
2021/05/10 09:43:56;;;;;;;;;;;;;;;14.72;70.71;98879.38;6183619;23;19927;-85
2021/05/10 09:46:21;;;;;;;;;;;;;;;14.73;70.78;98877.53;6209867;23;20068;-85
2021/05/10 09:48:46;;;;;;;;;;;;;;;14.71;70.72;98873.19;6211342;23;19916;-85
2021/05/10 09:51:12;;;;;;;;;;;;;;;14.74;70.75;98890.75;6183749;23;20040;-85
